Time;durP1;ratioP1;P1;durP2;ratioP2;P2;SDS_P1;SDS_P2;PMS_P1;PMS_P2;Temp;Humidity;BMP_temperature;BMP_pressure;BME280_temperature;BME280_humidity;BME280_pressure;Samples;Min_cycle;Max_cycle;Signal;HPM_P1;HPM_P2
2023/09/26 00:01:40;;;;;;;1.40;1.27;;;25.60;73.40;;;;;;5096701;28;20482;-87
2023/09/26 00:04:07;;;;;;;2.17;1.47;;;25.60;73.40;;;;;;5096566;28;20440;-87
2023/09/26 00:06:34;;;;;;;1.20;1.10;;;25.60;73.30;;;;;;5096670;28;20443;-87
2023/09/26 00:09:01;;;;;;;1.43;1.33;;;25.70;73.40;;;;;;5096636;28;20435;-87
2023/09/26 00:11:28;;;;;;;1.40;1.30;;;25.60;73.40;;;;;;5096345;28;21190;-87
2023/09/26 00:13:54;;;;;;;2.30;1.80;;;25.60;73.30;;;;;;5096158;28;20443;-87
2023/09/26 00:16:23;;;;;;;1.70;1.60;;;25.60;73.40;;;;;;5096456;28;20446;-87
2023/09/26 00:18:49;;;;;;;2.43;2.10;;;25.60;73.40;;;;;;5095966;28;20467;-87
2023/09/26 00:21:16;;;;;;;1.53;1.43;;;25.70;73.40;;;;;;5096102;28;20423;-87
2023/09/26 00:23:43;;;;;;;1.70;1.60;;;25.60;73.30;;;;;;5096225;28;20934;-87
2023/09/26 00:26:11;;;;;;;1.63;1.43;;;25.60;73.40;;;;;;5096253;28;20487;-87
2023/09/26 00:28:37;;;;;;;2.00;1.63;;;25.60;73.30;;;;;;5096022;28;20486;-87
2023/09/26 00:31:04;;;;;;;1.77;1.57;;;25.60;73.30;;;;;;5096198;28;20439;-87
2023/09/26 00:33:33;;;;;;;1.40;1.30;;;25.60;73.30;;;;;;5096159;28;20443;-86
2023/09/26 00:36:07;;;;;;;1.30;1.20;;;25.60;73.30;;;;;;5096091;28;20427;-87
2023/09/26 00:38:34;;;;;;;2.00;1.87;;;25.60;73.30;;;;;;5095029;28;20493;-87
2023/09/26 00:41:00;;;;;;;3.03;1.37;;;25.60;73.20;;;;;;5095809;28;20458;-87
2023/09/26 00:43:27;;;;;;;1.93;1.73;;;25.60;73.20;;;;;;5095899;28;20428;-87
2023/09/26 00:45:56;;;;;;;2.30;1.53;;;25.60;73.20;;;;;;5095624;28;20491;-87
2023/09/26 00:48:24;;;;;;;2.57;1.67;;;25.60;73.20;;;;;;5095967;28;20501;-87
2023/09/26 00:50:53;;;;;;;1.43;1.27;;;25.50;73.10;;;;;;5095604;28;20891;-87
2023/09/26 00:53:21;;;;;;;2.10;1.90;;;25.60;73.10;;;;;;5095385;28;20432;-87
2023/09/26 00:55:50;;;;;;;1.70;1.60;;;25.50;73.00;;;;;;5095596;28;20440;-87
2023/09/26 00:58:18;;;;;;;1.80;1.57;;;25.50;73.00;;;;;;5095496;28;20452;-88
2023/09/26 01:00:46;;;;;;;1.60;1.50;;;25.60;73.20;;;;;;5095730;28;20447;-87
2023/09/26 01:03:13;;;;;;;2.13;1.80;;;25.50;73.10;;;;;;5095245;28;20435;-87
2023/09/26 01:05:40;;;;;;;1.70;1.60;;;25.50;73.00;;;;;;5095201;28;21095;-87
2023/09/26 01:08:09;;;;;;;1.97;1.60;;;25.60;73.10;;;;;;5095677;28;20779;-87
2023/09/26 01:10:37;;;;;;;1.57;1.47;;;25.60;73.10;;;;;;5095146;28;20438;-87
2023/09/26 01:13:05;;;;;;;1.63;1.53;;;25.50;73.00;;;;;;5095318;28;20448;-87
2023/09/26 01:15:33;;;;;;;2.33;1.53;;;25.50;73.10;;;;;;5095126;28;20431;-87
2023/09/26 01:18:00;;;;;;;2.20;1.60;;;25.50;73.10;;;;;;5095198;28;20535;-87
2023/09/26 01:20:28;;;;;;;1.93;1.70;;;25.50;73.00;;;;;;5095133;28;20463;-87
2023/09/26 01:22:56;;;;;;;1.80;1.70;;;25.50;72.90;;;;;;5095069;28;20489;-87
2023/09/26 01:25:24;;;;;;;2.10;1.90;;;25.50;73.00;;;;;;5094956;28;20483;-87
2023/09/26 01:27:51;;;;;;;2.43;1.63;;;25.50;73.10;;;;;;5095119;28;20435;-87
2023/09/26 01:30:18;;;;;;;1.63;1.53;;;25.50;73.00;;;;;;5094847;28;20432;-87
2023/09/26 01:32:47;;;;;;;1.50;1.30;;;25.50;73.10;;;;;;5095451;28;20869;-87
2023/09/26 01:35:14;;;;;;;1.97;1.87;;;25.50;73.00;;;;;;5094977;28;20439;-87
2023/09/26 01:37:41;;;;;;;1.70;1.53;;;25.50;72.90;;;;;;5094639;28;20474;-87
2023/09/26 01:40:11;;;;;;;1.50;1.37;;;25.50;73.00;;;;;;5094846;28;20802;-87
2023/09/26 01:42:40;;;;;;;1.63;1.53;;;25.50;72.90;;;;;;5094732;28;20432;-87
2023/09/26 01:45:08;;;;;;;1.80;1.70;;;25.50;73.00;;;;;;5094562;28;20491;-87
2023/09/26 01:47:42;;;;;;;1.80;1.47;;;25.50;72.90;;;;;;5094755;28;20447;-86
2023/09/26 01:50:10;;;;;;;2.17;1.80;;;25.40;72.70;;;;;;5094544;28;20423;-86
2023/09/26 01:52:37;;;;;;;1.70;1.60;;;25.50;72.90;;;;;;5094352;28;20427;-87
2023/09/26 01:55:05;;;;;;;1.90;1.80;;;25.40;72.80;;;;;;5094358;28;20443;-87
2023/09/26 01:57:33;;;;;;;1.80;1.70;;;25.40;72.80;;;;;;5094302;28;21391;-87
2023/09/26 02:00:05;;;;;;;1.57;1.47;;;25.40;72.80;;;;;;5094462;28;20569;-87
2023/09/26 02:02:32;;;;;;;2.60;1.87;;;25.60;72.80;;;;;;5094331;28;20439;-87
2023/09/26 02:04:59;;;;;;;1.53;1.40;;;25.40;72.80;;;;;;5094344;28;20837;-87
2023/09/26 02:07:26;;;;;;;1.83;1.60;;;25.50;72.70;;;;;;5094144;28;20439;-87
2023/09/26 02:09:55;;;;;;;1.57;1.40;;;25.40;72.80;;;;;;5094202;28;20461;-87
2023/09/26 02:12:22;;;;;;;1.87;1.77;;;25.50;73.00;;;;;;5094333;28;20420;-87
2023/09/26 02:14:50;;;;;;;1.63;1.53;;;25.40;72.60;;;;;;5094024;28;20450;-87
2023/09/26 02:17:18;;;;;;;1.50;1.40;;;25.40;72.50;;;;;;5093987;28;20956;-87
2023/09/26 02:19:45;;;;;;;1.60;1.50;;;25.40;72.70;;;;;;5093718;28;20567;-87
2023/09/26 02:22:12;;;;;;;1.50;1.40;;;25.40;72.50;;;;;;5093772;28;20435;-87
2023/09/26 02:24:39;;;;;;;2.00;1.90;;;25.40;72.70;;;;;;5093811;28;20518;-87
2023/09/26 02:27:06;;;;;;;2.27;2.07;;;25.40;72.60;;;;;;5093753;28;20435;-87
2023/09/26 02:29:33;;;;;;;1.70;1.60;;;25.40;72.60;;;;;;5093683;28;20463;-87
2023/09/26 02:31:59;;;;;;;2.30;1.90;;;25.40;72.40;;;;;;5093763;28;20950;-87
2023/09/26 02:34:28;;;;;;;1.73;1.37;;;25.40;72.40;;;;;;5093907;28;20803;-87
2023/09/26 02:36:55;;;;;;;2.30;1.50;;;25.40;72.40;;;;;;5093951;28;20532;-87
2023/09/26 02:39:21;;;;;;;2.03;1.67;;;25.40;72.50;;;;;;5093606;28;20458;-87
2023/09/26 02:41:48;;;;;;;1.80;1.57;;;25.40;72.40;;;;;;5093668;28;20440;-87
2023/09/26 02:44:15;;;;;;;1.60;1.43;;;25.40;72.40;;;;;;5093911;28;20874;-87
2023/09/26 02:46:42;;;;;;;1.73;1.40;;;25.40;72.40;;;;;;5093482;28;21001;-87
2023/09/26 02:49:08;;;;;;;1.80;1.70;;;25.40;72.40;;;;;;5093633;28;20468;-87
2023/09/26 02:51:37;;;;;;;2.13;1.93;;;25.40;72.40;;;;;;5093778;28;20918;-87
2023/09/26 02:54:04;;;;;;;1.77;1.63;;;25.40;72.30;;;;;;5093500;28;20534;-87
2023/09/26 02:56:31;;;;;;;2.03;1.83;;;25.40;72.30;;;;;;5093442;28;20431;-87
2023/09/26 02:58:57;;;;;;;1.70;1.60;;;25.40;72.40;;;;;;5093796;28;20451;-87
2023/09/26 03:01:24;;;;;;;2.20;1.30;;;25.40;72.40;;;;;;5094731;28;20437;-87
2023/09/26 03:03:53;;;;;;;1.43;1.33;;;25.40;72.30;;;;;;5097882;28;20442;-87
2023/09/26 03:06:20;;;;;;;1.70;1.60;;;25.40;72.50;;;;;;5097758;28;20482;-87
2023/09/26 03:08:48;;;;;;;1.37;1.27;;;25.40;72.40;;;;;;5097841;28;20435;-87
2023/09/26 03:11:15;;;;;;;1.60;1.50;;;25.40;72.60;;;;;;5097393;28;20443;-87
2023/09/26 03:13:41;;;;;;;1.50;1.40;;;25.40;72.50;;;;;;5097835;28;20490;-87
2023/09/26 03:16:12;;;;;;;1.70;1.60;;;25.30;72.30;;;;;;5097631;28;20431;-87
2023/09/26 03:18:39;;;;;;;2.03;1.83;;;25.30;72.30;;;;;;5097235;28;20467;-87
2023/09/26 03:21:05;;;;;;;1.47;1.37;;;25.40;72.30;;;;;;5097440;28;20431;-87
2023/09/26 03:23:33;;;;;;;1.40;1.30;;;25.40;72.30;;;;;;5097307;28;20427;-87
2023/09/26 03:26:01;;;;;;;1.67;1.57;;;25.40;72.50;;;;;;5097344;28;20494;-87
2023/09/26 03:28:27;;;;;;;2.20;1.63;;;25.40;72.40;;;;;;5097378;28;20878;-87
2023/09/26 03:30:55;;;;;;;2.07;1.47;;;25.30;72.40;;;;;;5097068;28;20535;-87
2023/09/26 03:33:22;;;;;;;2.20;1.70;;;25.30;72.20;;;;;;5097254;28;20526;-87
2023/09/26 03:35:48;;;;;;;2.50;1.57;;;25.30;72.40;;;;;;5097168;28;20511;-87
2023/09/26 03:38:15;;;;;;;2.43;2.03;;;25.40;72.30;;;;;;5097073;28;20427;-87
2023/09/26 03:40:42;;;;;;;1.93;1.80;;;25.30;72.50;;;;;;5096804;28;20441;-87
2023/09/26 03:43:11;;;;;;;2.30;1.83;;;25.30;72.40;;;;;;5097179;28;20431;-87
2023/09/26 03:45:38;;;;;;;1.87;1.77;;;25.30;72.40;;;;;;5097221;28;20806;-87
2023/09/26 03:48:05;;;;;;;1.40;1.30;;;25.30;72.30;;;;;;5097155;28;20531;-87
2023/09/26 03:50:32;;;;;;;1.50;1.40;;;25.30;72.50;;;;;;5096726;28;20945;-87
2023/09/26 03:52:59;;;;;;;1.77;1.47;;;25.30;72.30;;;;;;5096912;28;20447;-87
2023/09/26 03:55:26;;;;;;;2.03;1.70;;;25.30;72.40;;;;;;5096571;28;20537;-87
2023/09/26 03:57:53;;;;;;;1.83;1.63;;;25.30;72.60;;;;;;5096798;28;20918;-87
2023/09/26 04:00:25;;;;;;;1.70;1.60;;;25.30;72.30;;;;;;5096785;28;20439;-87
2023/09/26 04:02:54;;;;;;;1.50;1.40;;;25.20;72.50;;;;;;5096676;28;20457;-86
2023/09/26 04:05:21;;;;;;;1.70;1.57;;;25.30;72.40;;;;;;5095944;28;20446;-86
2023/09/26 04:07:48;;;;;;;1.57;1.40;;;25.30;72.40;;;;;;5096287;28;20444;-87
2023/09/26 04:10:14;;;;;;;2.00;1.80;;;25.20;72.20;;;;;;5096335;28;20450;-87
2023/09/26 04:12:41;;;;;;;1.50;1.40;;;25.30;72.40;;;;;;5096483;28;20535;-87
2023/09/26 04:15:09;;;;;;;1.47;1.30;;;25.20;72.10;;;;;;5096452;28;20522;-87
2023/09/26 04:17:37;;;;;;;2.50;1.60;;;25.20;72.30;;;;;;5096527;28;20830;-86
2023/09/26 04:20:10;;;;;;;1.50;1.40;;;25.20;72.20;;;;;;5096227;28;20472;-87
2023/09/26 04:22:37;;;;;;;1.80;1.40;;;25.20;72.00;;;;;;5096154;28;20519;-87
2023/09/26 04:25:04;;;;;;;1.33;1.23;;;25.20;72.60;;;;;;5096112;28;20445;-86
2023/09/26 04:27:31;;;;;;;1.93;1.63;;;25.20;72.90;;;;;;5096060;28;20848;-88
2023/09/26 04:29:58;;;;;;;2.93;2.73;;;25.20;72.00;;;;;;5095854;28;20470;-88
2023/09/26 04:32:25;;;;;;;3.90;2.70;;;25.20;66.00;;;;;;5095898;28;20446;-88
2023/09/26 04:34:53;;;;;;;3.53;3.00;;;24.80;64.90;;;;;;5095806;28;20530;-87
2023/09/26 04:37:20;;;;;;;6.37;3.87;;;24.40;63.70;;;;;;5095805;28;20801;-88
2023/09/26 04:39:47;;;;;;;4.17;3.40;;;24.10;63.80;;;;;;5096023;28;20468;-88
2023/09/26 04:42:14;;;;;;;4.17;3.77;;;23.80;64.30;;;;;;5095707;28;20440;-87
2023/09/26 04:44:41;;;;;;;6.50;4.47;;;23.60;64.80;;;;;;5095950;28;20463;-89
2023/09/26 04:47:07;;;;;;;6.23;4.00;;;23.30;65.30;;;;;;5095846;28;20481;-86
2023/09/26 04:49:35;;;;;;;5.93;3.47;;;23.20;66.10;;;;;;5095555;28;20443;-85
2023/09/26 04:52:03;;;;;;;7.00;4.03;;;23.40;67.10;;;;;;5095875;28;20788;-89
2023/09/26 04:54:30;;;;;;;3.50;3.20;;;23.50;67.60;;;;;;5095762;28;20439;-87
2023/09/26 04:56:57;;;;;;;4.83;2.50;;;23.60;68.20;;;;;;5095795;28;20454;-88
2023/09/26 04:59:24;;;;;;;3.30;2.60;;;23.80;69.10;;;;;;5095771;28;20539;-88
2023/09/26 05:01:51;;;;;;;3.17;2.87;;;23.80;69.40;;;;;;5095704;28;20934;-88
2023/09/26 05:04:17;;;;;;;3.50;3.20;;;24.00;69.90;;;;;;5095381;28;20478;-88
2023/09/26 05:06:44;;;;;;;8.13;3.60;;;24.10;69.70;;;;;;5095246;28;20521;-88
2023/09/26 05:09:12;;;;;;;3.80;3.33;;;24.20;67.90;;;;;;5098001;28;20446;-87
2023/09/26 05:11:41;;;;;;;4.50;3.47;;;24.00;64.80;;;;;;5096253;28;20522;-88
2023/09/26 05:14:08;;;;;;;2.53;2.33;;;24.00;66.30;;;;;;5094820;28;20438;-87
2023/09/26 05:16:35;;;;;;;4.83;3.17;;;24.00;67.30;;;;;;5095078;28;20858;-91
2023/09/26 05:19:02;;;;;;;4.80;2.90;;;24.10;68.70;;;;;;5094862;28;20477;-91
2023/09/26 05:21:29;;;;;;;4.53;2.63;;;24.00;68.90;;;;;;5095156;28;20443;-91
2023/09/26 05:23:55;;;;;;;3.83;3.43;;;24.10;69.00;;;;;;5094531;28;20440;-91
2023/09/26 05:26:23;;;;;;;5.03;3.00;;;24.20;69.00;;;;;;5094781;28;20574;-91
2023/09/26 05:28:50;;;;;;;3.03;2.83;;;24.10;68.90;;;;;;5094946;28;20456;-91
2023/09/26 05:31:17;;;;;;;3.27;2.97;;;24.20;68.90;;;;;;5094861;28;20442;-91
2023/09/26 05:33:44;;;;;;;9.90;3.13;;;24.20;68.90;;;;;;5094645;28;20526;-90
2023/09/26 05:36:11;;;;;;;4.77;2.93;;;24.20;68.80;;;;;;5094690;28;20439;-90
2023/09/26 05:38:38;;;;;;;3.57;2.93;;;24.20;68.80;;;;;;5094857;28;20482;-90
2023/09/26 05:41:05;;;;;;;4.07;3.10;;;24.20;69.00;;;;;;5094570;28;20466;-91
2023/09/26 05:43:33;;;;;;;2.77;2.57;;;24.20;69.10;;;;;;5094707;28;20906;-90
2023/09/26 05:46:03;;;;;;;3.30;2.83;;;24.30;69.60;;;;;;5094071;28;20479;-87
2023/09/26 05:48:29;;;;;;;2.97;2.67;;;24.30;69.70;;;;;;5094332;28;20440;-86
2023/09/26 05:51:00;;;;;;;2.73;2.40;;;24.40;70.20;;;;;;5094129;28;20807;-87
2023/09/26 05:53:27;;;;;;;6.03;2.90;;;24.40;70.10;;;;;;5094630;28;20954;-86
2023/09/26 05:55:54;;;;;;;3.00;2.70;;;24.40;69.90;;;;;;5094271;28;20446;-86
2023/09/26 05:58:20;;;;;;;4.63;2.50;;;24.50;70.80;;;;;;5094381;28;20467;-86
2023/09/26 06:00:49;;;;;;;2.77;2.20;;;24.50;70.10;;;;;;5094003;28;20530;-86
2023/09/26 06:03:16;;;;;;;3.37;3.03;;;24.50;70.10;;;;;;5094129;28;20929;-86
2023/09/26 06:05:44;;;;;;;2.83;2.60;;;24.50;70.20;;;;;;5094281;28;20442;-86
2023/09/26 06:08:10;;;;;;;2.40;2.20;;;24.50;70.20;;;;;;5094007;28;20463;-86
2023/09/26 06:10:37;;;;;;;3.00;2.40;;;24.60;70.30;;;;;;5093502;28;20443;-86
2023/09/26 06:13:04;;;;;;;3.27;2.40;;;24.60;70.40;;;;;;5092486;28;20530;-86
2023/09/26 06:15:31;;;;;;;4.67;2.50;;;24.60;70.40;;;;;;5093386;28;20444;-86
2023/09/26 06:18:00;;;;;;;2.50;2.10;;;24.60;70.50;;;;;;5093103;28;20935;-86
2023/09/26 06:20:28;;;;;;;3.30;2.60;;;24.70;70.60;;;;;;5093231;28;20464;-86
2023/09/26 06:22:55;;;;;;;3.80;2.33;;;24.80;70.80;;;;;;5093414;28;20435;-86
2023/09/26 06:25:22;;;;;;;2.93;2.60;;;24.70;70.60;;;;;;5093669;28;20523;-86
2023/09/26 06:27:49;;;;;;;3.20;2.10;;;24.70;70.70;;;;;;5093652;28;21008;-86
2023/09/26 06:30:16;;;;;;;2.37;2.17;;;24.70;70.60;;;;;;5093427;28;20930;-86
2023/09/26 06:32:43;;;;;;;2.33;2.13;;;24.70;71.70;;;;;;5094366;28;20802;-93
2023/09/26 06:35:32;;;;;;;2.60;2.40;;;24.70;70.80;;;;;;5094856;23;20516;-96
2023/09/26 06:40:44;;;;;;;2.50;2.30;;;24.60;71.10;;;;;;5205918;22;20828;-96
2023/09/26 06:43:11;;;;;;;2.80;2.57;;;24.60;71.30;;;;;;5033734;28;21034;-96
2023/09/26 06:45:40;;;;;;;4.10;2.20;;;24.60;71.50;;;;;;5040836;28;20446;-95
2023/09/26 06:48:17;;;;;;;2.53;2.33;;;24.60;71.60;;;;;;5045043;28;20474;-94
2023/09/26 06:56:53;;;;;;;2.90;2.47;;;24.40;71.60;;;;;;5096093;28;20993;-94
2023/09/26 06:59:20;;;;;;;2.57;2.33;;;24.50;71.80;;;;;;5093612;28;20464;-93
2023/09/26 07:01:47;;;;;;;2.70;2.47;;;24.50;71.90;;;;;;5093792;28;20443;-93
2023/09/26 07:04:14;;;;;;;4.40;2.43;;;24.50;71.90;;;;;;5094271;28;20467;-93
2023/09/26 07:06:41;;;;;;;3.53;2.13;;;24.50;71.90;;;;;;5093215;28;20479;-93
2023/09/26 07:09:10;;;;;;;2.47;1.93;;;24.50;71.90;;;;;;5093375;28;20470;-93
2023/09/26 07:11:39;;;;;;;2.60;2.40;;;24.50;72.00;;;;;;5093489;28;20797;-94
2023/09/26 07:14:08;;;;;;;2.30;2.10;;;24.50;72.10;;;;;;5093363;28;20453;-93
2023/09/26 07:16:35;;;;;;;2.70;2.50;;;24.50;72.10;;;;;;5093653;28;20467;-93
2023/09/26 07:19:02;;;;;;;2.40;2.20;;;24.50;72.10;;;;;;5093666;28;20442;-93
2023/09/26 07:21:29;;;;;;;3.00;2.20;;;24.60;72.30;;;;;;5093713;28;20482;-92
2023/09/26 07:23:56;;;;;;;3.13;2.20;;;24.50;72.20;;;;;;5094784;28;20542;-94
2023/09/26 07:26:23;;;;;;;3.40;1.90;;;24.60;72.20;;;;;;5094292;28;20447;-95
2023/09/26 07:28:50;;;;;;;3.07;2.57;;;24.60;72.40;;;;;;5093864;28;20469;-95
2023/09/26 07:31:19;;;;;;;2.43;2.20;;;24.60;72.40;;;;;;5094712;28;20443;-95
2023/09/26 07:33:47;;;;;;;2.73;2.30;;;24.60;72.40;;;;;;5093576;28;20479;-96
2023/09/26 07:36:14;;;;;;;3.97;2.27;;;24.60;72.60;;;;;;5093550;28;20443;-96
2023/09/26 07:38:41;;;;;;;4.13;2.53;;;24.60;72.70;;;;;;5095654;28;20439;-95
2023/09/26 07:41:12;;;;;;;2.50;2.30;;;24.60;72.90;;;;;;5094938;28;20443;-94
2023/09/26 07:43:40;;;;;;;5.70;2.80;;;24.70;73.30;;;;;;5095638;28;20447;-95
2023/09/26 07:46:11;;;;;;;3.70;2.90;;;24.60;73.30;;;;;;5103454;28;20458;-96
2023/09/26 07:48:41;;;;;;;3.37;2.50;;;24.70;73.50;;;;;;5071250;28;20824;-96
2023/09/26 07:51:13;;;;;;;3.53;2.30;;;24.60;73.40;;;;;;5106293;28;20493;-96
2023/09/26 07:53:42;;;;;;;4.80;3.30;;;24.70;73.40;;;;;;5104992;28;20501;-96
2023/09/26 07:56:10;;;;;;;5.03;2.90;;;24.70;73.30;;;;;;5106518;28;20443;-96
2023/09/26 08:01:25;;;;;;;3.10;1.80;;;24.70;73.30;;;;;;5105902;28;20435;-95
2023/09/26 08:03:55;;;;;;;3.27;2.27;;;24.60;73.20;;;;;;5109348;28;20500;-96
2023/09/26 08:06:24;;;;;;;3.43;2.40;;;24.70;73.30;;;;;;5090730;28;20435;-96
2023/09/26 08:08:54;;;;;;;2.73;1.70;;;24.70;73.30;;;;;;5109397;28;20473;-95
2023/09/26 08:11:27;;;;;;;3.07;2.10;;;24.70;73.30;;;;;;5110959;28;20436;-96
2023/09/26 08:13:58;;;;;;;3.50;2.30;;;24.70;73.30;;;;;;5092990;28;20432;-96
2023/09/26 08:16:27;;;;;;;1.93;1.80;;;24.80;73.20;;;;;;5112160;28;20497;-96
2023/09/26 08:19:23;;;;;;;3.27;2.00;;;24.80;73.20;;;;;;5111893;28;20465;-96
2023/09/26 08:24:36;;;;;;;5.53;2.20;;;24.80;73.20;;;;;;5112873;28;20432;-96
2023/09/26 08:30:24;;;;;;;2.90;2.00;;;24.80;73.20;;;;;;5108862;28;20450;-96
2023/09/26 11:25:13;;;;;;;1.77;1.67;;;25.80;73.40;;;;;;5045411;22;20478;-93
2023/09/26 11:40:41;;;;;;;1.77;1.30;;;25.70;73.70;;;;;;4990082;28;20483;-95
2023/09/26 11:43:11;;;;;;;2.53;1.37;;;25.70;73.50;;;;;;4980423;28;20437;-89
2023/09/26 11:45:39;;;;;;;1.63;1.53;;;25.70;73.60;;;;;;4980101;28;20447;-90
2023/09/26 11:48:07;;;;;;;1.50;1.40;;;25.80;73.70;;;;;;4979108;28;20499;-96
2023/09/26 11:50:36;;;;;;;1.30;1.10;;;25.80;73.80;;;;;;4982203;28;20452;-90
2023/09/26 11:53:04;;;;;;;1.60;1.30;;;25.80;73.30;;;;;;4982798;28;20448;-89
2023/09/26 11:55:35;;;;;;;1.63;1.53;;;25.80;73.40;;;;;;4982786;28;20433;-89
2023/09/26 11:58:02;;;;;;;1.47;1.37;;;25.80;73.20;;;;;;4983116;28;20504;-90
2023/09/26 12:00:30;;;;;;;1.47;1.33;;;25.80;73.40;;;;;;4984789;28;20528;-91
2023/09/26 12:02:57;;;;;;;1.63;1.40;;;25.80;73.30;;;;;;4997961;28;20480;-91
2023/09/26 12:05:24;;;;;;;1.33;1.07;;;25.80;73.60;;;;;;5021620;28;20533;-89
2023/09/26 12:07:51;;;;;;;1.40;1.30;;;25.90;73.60;;;;;;5021919;28;20490;-89
2023/09/26 12:10:19;;;;;;;1.70;1.30;;;25.80;73.30;;;;;;5023734;28;20530;-89
2023/09/26 12:12:50;;;;;;;1.20;1.00;;;25.90;73.50;;;;;;5025335;28;20467;-89
2023/09/26 12:15:19;;;;;;;1.20;1.10;;;25.80;73.30;;;;;;5021448;28;20453;-93
2023/09/26 12:17:46;;;;;;;2.33;1.27;;;25.80;73.40;;;;;;5020131;28;20935;-89
2023/09/26 12:20:16;;;;;;;1.97;1.60;;;25.80;73.10;;;;;;5019108;28;20809;-94
2023/09/26 12:22:50;;;;;;;3.30;1.57;;;25.80;73.40;;;;;;5020237;28;20447;-95
2023/09/26 12:25:24;;;;;;;2.23;1.10;;;25.90;73.40;;;;;;5020927;28;20474;-94
2023/09/26 12:28:35;;;;;;;2.57;1.50;;;25.80;72.80;;;;;;5022682;28;20483;-95
2023/09/26 16:50:19;;;;;;;1.70;1.50;;;25.50;77.10;;;;;;3828721;23;20478;-96
2023/09/26 16:52:46;;;;;;;1.67;1.57;;;25.40;77.10;;;;;;5001215;28;20468;-96
2023/09/26 16:55:14;;;;;;;2.77;1.63;;;25.50;77.30;;;;;;5000263;28;20506;-95
2023/09/26 17:04:31;;;;;;;1.47;1.37;;;25.40;77.30;;;;;;5000876;28;20500;-96
2023/09/26 17:07:00;;;;;;;1.77;1.43;;;25.40;77.30;;;;;;4999653;28;20436;-96
2023/09/26 17:09:27;;;;;;;1.93;1.70;;;25.40;77.30;;;;;;4998287;28;20510;-96
2023/09/26 17:11:54;;;;;;;2.53;2.00;;;25.40;77.30;;;;;;4999522;28;20475;-95
2023/09/26 17:14:23;;;;;;;2.47;1.40;;;25.40;77.40;;;;;;4998281;28;20444;-96
2023/09/26 17:16:50;;;;;;;2.60;1.70;;;25.40;77.30;;;;;;4998654;28;20498;-96
2023/09/26 17:23:20;;;;;;;2.23;1.77;;;25.40;77.80;;;;;;4987484;28;20461;-96
2023/09/26 17:25:49;;;;;;;2.60;1.43;;;25.40;77.80;;;;;;4979583;28;20524;-95
2023/09/26 17:28:20;;;;;;;3.00;1.70;;;25.40;77.80;;;;;;4974510;28;20488;-94
2023/09/26 17:30:53;;;;;;;2.53;1.70;;;25.40;77.90;;;;;;4974782;28;20441;-94
2023/09/26 17:33:23;;;;;;;1.60;1.50;;;25.20;77.70;;;;;;4974215;28;20528;-94
2023/09/26 17:35:56;;;;;;;1.60;1.50;;;25.40;78.00;;;;;;4974258;28;20859;-94
2023/09/26 17:38:23;;;;;;;7.53;2.03;;;25.40;78.00;;;;;;4974938;28;20444;-96
2023/09/26 17:40:55;;;;;;;2.87;1.97;;;25.40;78.10;;;;;;4957975;28;20940;-96
2023/09/26 17:43:38;;;;;;;2.20;2.00;;;25.30;78.10;;;;;;4976807;28;20453;-95
2023/09/26 17:46:04;;;;;;;2.20;1.90;;;25.40;78.00;;;;;;4974539;28;20549;-91
2023/09/26 17:48:31;;;;;;;1.80;1.60;;;25.40;78.00;;;;;;4970387;28;20481;-86
2023/09/26 17:50:59;;;;;;;2.27;2.07;;;25.40;77.90;;;;;;4971983;28;20886;-87
2023/09/26 17:53:26;;;;;;;2.30;2.10;;;25.40;77.60;;;;;;4984428;28;20482;-86
2023/09/26 17:55:54;;;;;;;5.20;2.10;;;25.40;77.30;;;;;;4992942;28;20451;-86
2023/09/26 17:58:21;;;;;;;3.10;1.93;;;25.50;77.40;;;;;;4992846;28;20447;-86
2023/09/26 18:00:48;;;;;;;2.80;2.17;;;25.50;77.30;;;;;;4992619;28;20436;-87
2023/09/26 18:03:15;;;;;;;2.10;2.00;;;25.60;77.40;;;;;;4992684;28;20955;-87
2023/09/26 18:05:42;;;;;;;3.17;1.90;;;25.60;77.40;;;;;;4993075;28;20530;-87
2023/09/26 18:08:09;;;;;;;3.43;2.47;;;25.60;77.40;;;;;;4992651;28;20492;-87
2023/09/26 18:10:36;;;;;;;3.10;2.10;;;25.60;77.40;;;;;;4992180;28;20944;-87
2023/09/26 18:13:04;;;;;;;2.97;2.30;;;25.60;77.30;;;;;;4992145;28;20451;-87
2023/09/26 18:15:32;;;;;;;2.40;2.00;;;25.60;77.20;;;;;;4992029;28;20443;-86
2023/09/26 18:18:00;;;;;;;3.87;2.30;;;25.60;77.20;;;;;;4993096;28;20448;-86
2023/09/26 18:20:27;;;;;;;2.80;1.93;;;25.80;77.30;;;;;;4994367;28;20448;-91
2023/09/26 18:22:56;;;;;;;2.90;2.60;;;25.60;77.10;;;;;;4994413;28;20467;-92
2023/09/26 18:25:22;;;;;;;4.40;2.50;;;25.60;77.40;;;;;;4994554;28;20432;-91
2023/09/26 18:27:49;;;;;;;3.60;2.23;;;25.60;77.50;;;;;;4994503;28;20939;-91
2023/09/26 18:30:18;;;;;;;7.63;2.87;;;25.50;77.40;;;;;;4995014;28;20802;-91
2023/09/26 18:32:45;;;;;;;2.70;2.50;;;25.50;78.30;;;;;;4994661;28;20479;-93
2023/09/26 18:35:12;;;;;;;3.70;2.07;;;25.50;77.50;;;;;;4995105;28;20535;-92
2023/09/26 18:37:39;;;;;;;3.43;2.20;;;25.50;77.60;;;;;;4994649;28;20468;-90
2023/09/26 18:40:13;;;;;;;4.20;2.60;;;25.50;77.60;;;;;;4994579;28;20451;-95
2023/09/26 18:42:40;;;;;;;2.70;2.50;;;25.40;77.60;;;;;;4995540;28;20527;-95
2023/09/26 18:45:10;;;;;;;7.83;2.63;;;25.40;77.40;;;;;;4995284;28;20467;-91
2023/09/26 18:47:39;;;;;;;3.93;2.53;;;25.40;77.40;;;;;;4995714;28;20908;-92
2023/09/26 18:50:06;;;;;;;4.47;2.13;;;25.40;77.60;;;;;;4993942;28;20495;-93
2023/09/26 18:52:33;;;;;;;4.23;2.03;;;25.30;77.60;;;;;;4994629;28;20527;-94
2023/09/26 18:55:01;;;;;;;2.00;1.80;;;25.40;77.70;;;;;;4995071;28;20519;-90
2023/09/26 18:57:28;;;;;;;5.53;2.10;;;25.40;77.80;;;;;;4994638;28;20532;-93
2023/09/26 18:59:55;;;;;;;2.57;1.80;;;25.40;77.80;;;;;;4994310;28;20511;-92
2023/09/26 19:02:21;;;;;;;6.13;2.10;;;25.50;77.60;;;;;;4993976;28;20450;-89
2023/09/26 19:04:49;;;;;;;2.80;1.97;;;25.60;77.60;;;;;;4994010;28;20449;-89
2023/09/26 19:07:16;;;;;;;2.87;2.03;;;25.60;77.50;;;;;;4993926;28;20931;-90
2023/09/26 19:09:43;;;;;;;2.73;1.97;;;25.60;77.60;;;;;;4993993;28;20487;-89
2023/09/26 19:12:10;;;;;;;3.33;2.03;;;25.60;77.50;;;;;;4993726;28;20452;-87
2023/09/26 19:14:38;;;;;;;6.07;2.50;;;25.60;77.70;;;;;;4994112;28;20448;-86
2023/09/26 19:17:05;;;;;;;3.00;2.30;;;25.60;77.70;;;;;;4993324;28;20537;-87
2023/09/26 19:19:31;;;;;;;4.47;2.27;;;25.70;77.60;;;;;;4996600;28;20440;-87
2023/09/26 19:21:59;;;;;;;2.87;2.10;;;25.70;77.50;;;;;;4995304;28;20452;-93
2023/09/26 19:24:26;;;;;;;2.83;2.13;;;25.70;77.50;;;;;;4997821;28;21019;-88
2023/09/26 19:26:53;;;;;;;3.40;2.47;;;25.60;77.40;;;;;;4993869;28;20511;-87
2023/09/26 19:29:20;;;;;;;2.30;2.10;;;25.60;77.40;;;;;;4993559;28;20575;-86
2023/09/26 19:31:47;;;;;;;2.10;2.00;;;25.60;77.40;;;;;;4994078;28;20439;-86
2023/09/26 19:34:13;;;;;;;2.27;1.97;;;25.60;77.40;;;;;;4993742;28;20440;-86
2023/09/26 19:36:40;;;;;;;3.07;1.90;;;25.60;77.40;;;;;;4993984;28;20444;-87
2023/09/26 19:39:08;;;;;;;2.50;2.10;;;25.70;77.50;;;;;;4993708;28;20440;-89
2023/09/26 19:41:36;;;;;;;5.00;2.07;;;25.70;77.50;;;;;;4993701;28;20811;-86
2023/09/26 19:44:03;;;;;;;2.80;1.93;;;25.70;77.60;;;;;;4995920;28;20530;-87
2023/09/26 19:46:30;;;;;;;2.10;1.90;;;25.80;77.60;;;;;;4997399;28;20443;-86
2023/09/26 19:49:09;;;;;;;2.20;2.00;;;25.70;77.40;;;;;;4996994;28;20476;-87
2023/09/26 19:51:36;;;;;;;2.40;2.20;;;25.80;77.60;;;;;;4996839;28;20467;-87
2023/09/26 19:54:02;;;;;;;3.47;2.13;;;25.70;77.40;;;;;;4994932;28;21036;-88
2023/09/26 19:56:31;;;;;;;2.40;2.20;;;25.70;77.40;;;;;;4996661;28;20448;-90
2023/09/26 19:58:58;;;;;;;2.30;2.10;;;25.70;77.50;;;;;;4997107;28;20436;-89
2023/09/26 20:01:27;;;;;;;2.37;2.17;;;25.60;77.40;;;;;;4997167;28;20444;-90
2023/09/26 20:03:54;;;;;;;2.30;2.10;;;25.60;77.50;;;;;;4997286;28;20440;-89
2023/09/26 20:06:21;;;;;;;2.10;1.90;;;25.60;77.50;;;;;;4997380;28;20530;-89
2023/09/26 20:08:48;;;;;;;3.57;2.07;;;25.60;77.60;;;;;;4997225;28;21009;-90
2023/09/26 20:11:18;;;;;;;2.40;2.20;;;25.50;77.60;;;;;;4996922;28;21008;-90
2023/09/26 20:13:46;;;;;;;2.37;2.17;;;25.50;77.70;;;;;;4996922;28;20947;-89
2023/09/26 20:16:13;;;;;;;2.47;2.03;;;25.50;77.80;;;;;;4997023;28;20447;-91
2023/09/26 20:18:40;;;;;;;2.30;2.10;;;25.50;77.90;;;;;;4996723;28;20488;-90
2023/09/26 20:21:07;;;;;;;3.07;2.67;;;25.50;77.90;;;;;;4996894;28;20527;-92
2023/09/26 20:23:34;;;;;;;2.43;2.23;;;25.50;78.00;;;;;;4996898;28;20530;-91
2023/09/26 20:26:02;;;;;;;2.47;2.10;;;25.50;78.00;;;;;;4997019;28;20535;-92
2023/09/26 20:28:29;;;;;;;4.20;2.50;;;25.50;78.00;;;;;;4996664;28;20825;-90
2023/09/26 20:30:58;;;;;;;2.50;2.30;;;25.50;78.10;;;;;;4996339;28;20537;-92
2023/09/26 20:33:26;;;;;;;2.47;2.27;;;25.50;78.10;;;;;;4995804;28;20547;-90
2023/09/26 20:35:57;;;;;;;2.50;2.30;;;25.50;78.10;;;;;;4996233;28;20540;-91
2023/09/26 20:38:24;;;;;;;4.63;2.63;;;25.40;78.00;;;;;;4996423;28;20444;-91
2023/09/26 20:41:01;;;;;;;2.50;2.17;;;25.40;78.00;;;;;;4996105;28;20991;-91
2023/09/26 20:43:27;;;;;;;2.50;2.30;;;25.40;78.00;;;;;;4995369;28;20448;-90
2023/09/26 20:45:54;;;;;;;2.60;1.67;;;25.40;78.00;;;;;;4996273;28;20515;-92